Time;durP1;ratioP1;P1;durP2;ratioP2;P2;SDS_P1;SDS_P2;PMS_P1;PMS_P2;Temp;Humidity;BMP_temperature;BMP_pressure;BME280_temperature;BME280_humidity;BME280_pressure;Samples;Min_cycle;Max_cycle;Signal;HPM_P1;HPM_P2
2022/05/20 00:02:17;;;;;;;1.10;0.50;;;21.50;63.00;;;;;;5076402;28;20166;-75
2022/05/20 00:04:45;;;;;;;1.40;0.60;;;21.40;62.80;;;;;;5094236;28;20040;-73
2022/05/20 00:07:11;;;;;;;0.88;0.35;;;21.50;62.80;;;;;;5076644;28;20119;-73
2022/05/20 00:09:37;;;;;;;1.83;0.98;;;21.40;62.80;;;;;;5076433;28;20558;-73
2022/05/20 00:12:04;;;;;;;0.85;0.50;;;21.40;62.80;;;;;;5076042;28;20085;-74
2022/05/20 00:14:31;;;;;;;1.67;0.40;;;21.40;62.80;;;;;;5075069;28;20055;-74
2022/05/20 00:17:01;;;;;;;2.33;0.47;;;21.40;62.70;;;;;;5085990;28;20043;-73
2022/05/20 00:19:27;;;;;;;0.70;0.30;;;21.40;62.80;;;;;;5076115;28;20071;-69
2022/05/20 00:21:53;;;;;;;0.90;0.30;;;21.40;62.80;;;;;;5076078;28;20051;-72
2022/05/20 00:24:19;;;;;;;1.98;0.60;;;21.40;62.70;;;;;;5093745;28;20039;-75
2022/05/20 00:26:45;;;;;;;1.67;0.50;;;21.40;62.70;;;;;;5075990;28;20067;-75
2022/05/20 00:29:11;;;;;;;0.65;0.40;;;21.40;62.70;;;;;;5094330;28;20051;-74
2022/05/20 00:31:37;;;;;;;1.23;0.40;;;21.40;62.70;;;;;;5093922;28;20040;-74
2022/05/20 00:34:02;;;;;;;1.25;0.57;;;21.40;62.70;;;;;;5075442;28;20533;-74
2022/05/20 00:36:28;;;;;;;0.77;0.30;;;21.40;62.70;;;;;;5093499;28;20413;-74
2022/05/20 00:38:53;;;;;;;0.75;0.40;;;21.30;62.60;;;;;;5093726;28;20072;-74
2022/05/20 00:41:19;;;;;;;2.05;0.50;;;21.30;62.60;;;;;;5093669;28;20044;-72
2022/05/20 00:43:47;;;;;;;2.33;0.50;;;21.30;62.50;;;;;;5075515;28;20047;-73
2022/05/20 00:46:16;;;;;;;1.15;0.50;;;21.30;62.60;;;;;;5075845;28;20051;-73
2022/05/20 00:48:42;;;;;;;1.55;0.30;;;21.30;62.60;;;;;;5075711;28;20388;-75
2022/05/20 00:51:32;;;;;;;1.20;0.60;;;21.30;62.60;;;;;;5075335;28;20040;-74
2022/05/20 00:54:03;;;;;;;1.60;0.50;;;21.30;62.50;;;;;;5067368;28;20503;-73
2022/05/20 00:56:37;;;;;;;1.80;0.90;;;21.30;62.50;;;;;;5074729;28;20044;-74
2022/05/20 00:59:05;;;;;;;1.83;0.60;;;21.30;62.40;;;;;;5075176;28;20128;-74
2022/05/20 01:01:31;;;;;;;1.15;0.52;;;21.30;62.40;;;;;;5093343;28;20040;-73
2022/05/20 01:03:57;;;;;;;1.58;0.50;;;21.20;62.40;;;;;;5075100;28;20297;-73
2022/05/20 01:06:23;;;;;;;1.30;0.30;;;21.30;62.40;;;;;;5075260;28;20080;-73
2022/05/20 01:08:48;;;;;;;0.60;0.30;;;21.20;62.40;;;;;;5093602;28;20526;-73
2022/05/20 01:11:14;;;;;;;1.80;0.50;;;21.30;62.40;;;;;;5075200;28;20040;-75
2022/05/20 01:13:40;;;;;;;1.42;0.55;;;21.20;62.40;;;;;;5074826;28;20044;-75
2022/05/20 01:16:11;;;;;;;1.25;0.65;;;21.20;62.30;;;;;;5074612;28;20065;-73
2022/05/20 01:18:40;;;;;;;1.05;0.60;;;21.20;62.30;;;;;;5074671;28;20587;-73
2022/05/20 01:21:05;;;;;;;1.27;0.40;;;21.20;62.40;;;;;;5093018;28;20044;-75
2022/05/20 01:23:33;;;;;;;1.20;0.43;;;21.20;62.30;;;;;;5074998;28;20085;-73
2022/05/20 01:25:59;;;;;;;0.80;0.43;;;21.20;62.40;;;;;;5073851;28;20052;-73
2022/05/20 01:28:27;;;;;;;0.82;0.43;;;21.20;62.30;;;;;;5075186;28;20088;-73
2022/05/20 01:30:58;;;;;;;1.20;0.50;;;21.20;62.30;;;;;;5092732;28;20066;-73
2022/05/20 01:33:34;;;;;;;1.08;0.40;;;21.20;62.20;;;;;;5092910;28;20062;-74
2022/05/20 01:36:03;;;;;;;2.08;0.55;;;21.20;62.20;;;;;;5074194;28;20094;-74
2022/05/20 01:38:28;;;;;;;3.08;0.63;;;21.20;62.20;;;;;;5074501;28;20051;-74
2022/05/20 01:41:04;;;;;;;1.98;0.77;;;21.10;62.10;;;;;;5074336;28;20048;-70
2022/05/20 01:44:09;;;;;;;0.70;0.30;;;21.20;62.10;;;;;;5074606;28;20078;-74
2022/05/20 01:54:54;;;;;;;1.35;0.60;;;21.10;62.10;;;;;;5130021;27;20414;-73
2022/05/20 02:05:46;;;;;;;1.25;0.57;;;21.10;62.10;;;;;;5088930;28;20385;-73
2022/05/20 02:10:57;;;;;;;1.35;0.30;;;21.10;62.00;;;;;;5130081;27;20358;-72
2022/05/20 02:13:27;;;;;;;1.40;0.50;;;21.10;62.00;;;;;;5145280;27;20375;-74
2022/05/20 02:16:01;;;;;;;1.15;0.47;;;21.10;61.90;;;;;;5128297;28;20043;-73
2022/05/20 02:18:33;;;;;;;1.83;0.50;;;21.10;61.90;;;;;;5128608;28;20070;-73
2022/05/20 02:21:05;;;;;;;1.92;0.50;;;21.00;61.80;;;;;;5129082;28;20424;-71
2022/05/20 02:23:38;;;;;;;1.35;0.70;;;21.00;61.80;;;;;;5128424;28;20043;-73
2022/05/20 02:26:08;;;;;;;1.25;0.40;;;21.00;61.90;;;;;;5128232;28;20169;-73
2022/05/20 02:28:36;;;;;;;;;;;21.00;61.90;;;;;;5129056;28;20043;-72
2022/05/20 02:31:04;;;;;;;1.35;0.43;;;21.00;61.80;;;;;;5128793;28;19950;-73
2022/05/20 02:33:32;;;;;;;1.33;0.47;;;21.00;61.90;;;;;;5128508;28;20040;-73
2022/05/20 02:36:04;;;;;;;2.65;0.50;;;21.00;61.80;;;;;;5126924;28;20054;-73
2022/05/20 02:38:29;;;;;;;0.82;0.55;;;21.00;61.80;;;;;;5129272;28;20450;-72
2022/05/20 02:40:55;;;;;;;1.50;0.60;;;21.00;61.80;;;;;;5128461;27;20066;-72
2022/05/20 02:43:22;;;;;;;3.20;0.65;;;21.00;61.80;;;;;;5129504;28;20038;-72
2022/05/20 02:45:49;;;;;;;1.10;0.55;;;21.00;61.80;;;;;;5128174;28;20039;-73
2022/05/20 02:48:17;;;;;;;1.08;0.35;;;21.00;61.80;;;;;;5129507;28;20035;-71
2022/05/20 02:50:43;;;;;;;1.35;0.30;;;21.00;61.80;;;;;;5128120;28;20043;-73
2022/05/20 02:53:09;;;;;;;1.70;0.63;;;21.00;61.70;;;;;;5128235;28;20043;-72
2022/05/20 02:55:35;;;;;;;1.42;0.43;;;20.90;61.70;;;;;;5127391;28;20084;-72
2022/05/20 02:58:01;;;;;;;2.97;0.90;;;20.90;61.70;;;;;;5129060;28;20532;-73
2022/05/20 03:05:58;;;;;;;1.92;0.80;;;20.90;61.70;;;;;;5127333;28;20164;-71
2022/05/20 03:08:24;;;;;;;1.52;0.70;;;20.90;61.60;;;;;;5127785;27;20134;-72
2022/05/20 03:10:50;;;;;;;1.00;0.55;;;20.90;61.60;;;;;;5129154;28;20390;-72
2022/05/20 03:13:16;;;;;;;1.25;0.50;;;20.90;61.60;;;;;;5127807;28;20047;-73
2022/05/20 03:15:42;;;;;;;1.48;0.73;;;20.90;62.30;;;;;;5127107;28;20043;-70
2022/05/20 03:18:10;;;;;;;1.33;0.50;;;20.90;61.60;;;;;;5128550;28;20043;-74
2022/05/20 03:20:37;;;;;;;1.17;0.40;;;20.90;61.50;;;;;;5122725;28;20510;-73
2022/05/20 03:23:03;;;;;;;1.50;0.45;;;20.90;61.50;;;;;;5114085;28;20039;-76
2022/05/20 03:25:29;;;;;;;1.00;0.50;;;20.90;61.50;;;;;;5114842;28;20050;-73
2022/05/20 03:27:54;;;;;;;1.73;0.55;;;20.80;61.40;;;;;;5114061;28;20046;-73
2022/05/20 03:30:20;;;;;;;1.02;0.43;;;20.80;61.50;;;;;;5113872;28;20540;-73
2022/05/20 03:32:46;;;;;;;1.63;0.70;;;20.90;61.50;;;;;;5113516;28;20092;-73
2022/05/20 03:35:12;;;;;;;1.00;0.43;;;20.90;61.50;;;;;;5112273;28;20052;-73
2022/05/20 03:37:38;;;;;;;2.75;1.25;;;20.80;61.40;;;;;;5114360;28;20425;-71
2022/05/20 03:40:04;;;;;;;2.50;0.80;;;20.80;61.40;;;;;;5113450;28;20039;-71
2022/05/20 03:42:30;;;;;;;1.15;0.60;;;20.80;61.40;;;;;;5113429;28;20149;-73
2022/05/20 03:44:56;;;;;;;1.00;0.57;;;20.80;61.30;;;;;;5112821;28;20123;-73
2022/05/20 03:47:22;;;;;;;1.85;0.63;;;20.80;61.40;;;;;;5113335;28;20047;-70
2022/05/20 03:49:50;;;;;;;1.35;0.50;;;20.80;61.40;;;;;;5113310;28;20031;-73
2022/05/20 03:52:25;;;;;;;1.52;0.98;;;20.80;61.30;;;;;;5113059;28;20050;-72
2022/05/20 03:54:53;;;;;;;2.38;0.73;;;20.80;61.40;;;;;;5113146;28;20044;-72
2022/05/20 03:57:19;;;;;;;2.45;0.50;;;20.80;61.40;;;;;;5112541;28;20041;-73
2022/05/20 03:59:45;;;;;;;1.27;0.50;;;20.80;61.40;;;;;;5113264;28;20035;-71
2022/05/20 04:02:12;;;;;;;2.90;0.70;;;20.80;61.30;;;;;;5113311;28;20039;-71
2022/05/20 04:04:42;;;;;;;1.48;0.60;;;20.80;61.30;;;;;;5112803;28;20043;-72
2022/05/20 04:07:12;;;;;;;1.73;0.67;;;20.80;61.30;;;;;;5112833;28;20043;-73
2022/05/20 04:09:38;;;;;;;;;;;20.80;61.20;;;;;;5112462;28;20321;-73
2022/05/20 04:12:07;;;;;;;1.05;0.60;;;20.80;61.10;;;;;;5112398;28;19973;-72
2022/05/20 04:14:33;;;;;;;1.38;0.50;;;20.80;61.20;;;;;;5112725;28;20043;-73
2022/05/20 04:16:59;;;;;;;1.13;0.52;;;20.80;61.10;;;;;;5112137;28;20031;-72
2022/05/20 04:19:30;;;;;;;1.83;0.52;;;20.70;61.10;;;;;;5112660;28;20141;-72
2022/05/20 04:22:03;;;;;;;1.38;0.50;;;20.80;61.10;;;;;;5114187;28;20036;-71
2022/05/20 04:24:29;;;;;;;1.10;0.52;;;20.70;60.90;;;;;;5112803;28;20043;-72
2022/05/20 04:26:54;;;;;;;1.20;0.52;;;20.70;61.00;;;;;;5112624;28;20399;-73
2022/05/20 04:29:20;;;;;;;0.90;0.50;;;20.80;61.00;;;;;;5112865;28;20042;-72
2022/05/20 04:31:48;;;;;;;1.00;0.65;;;20.80;60.90;;;;;;5113237;28;20118;-71
2022/05/20 04:34:14;;;;;;;1.58;0.73;;;20.80;60.90;;;;;;5112009;28;20059;-71
2022/05/20 04:36:40;;;;;;;1.38;0.47;;;20.80;60.90;;;;;;5111534;28;20547;-69
2022/05/20 04:39:07;;;;;;;1.02;0.68;;;20.70;60.80;;;;;;5112407;28;20028;-71
2022/05/20 04:47:11;;;;;;;1.08;0.60;;;20.70;60.60;;;;;;5113206;28;20092;-72
2022/05/20 04:49:40;;;;;;;2.15;0.63;;;20.70;60.60;;;;;;5112243;28;20126;-72
2022/05/20 04:52:06;;;;;;;1.15;0.52;;;20.70;60.60;;;;;;5111923;28;20475;-71
2022/05/20 04:55:03;;;;;;;1.38;0.50;;;20.70;60.60;;;;;;5113449;28;20372;-72
2022/05/20 04:57:28;;;;;;;1.73;0.65;;;20.70;60.60;;;;;;5110971;28;20066;-73
2022/05/20 05:00:03;;;;;;;2.15;0.60;;;20.70;60.60;;;;;;5113294;28;20027;-71
2022/05/20 05:02:31;;;;;;;1.75;0.60;;;20.70;60.50;;;;;;5111412;28;20046;-73
2022/05/20 05:04:57;;;;;;;1.05;0.50;;;20.70;60.50;;;;;;5112829;28;20043;-71
2022/05/20 05:07:25;;;;;;;1.05;0.50;;;20.70;60.50;;;;;;5111576;28;20065;-71
2022/05/20 05:09:53;;;;;;;1.63;0.40;;;20.70;60.40;;;;;;5111651;28;20059;-70
2022/05/20 05:12:18;;;;;;;2.65;0.50;;;20.70;60.50;;;;;;5112768;28;20123;-73
2022/05/20 05:14:47;;;;;;;1.50;0.65;;;20.70;60.40;;;;;;5113259;28;20126;-71
2022/05/20 05:17:16;;;;;;;0.68;0.35;;;20.70;60.40;;;;;;5111237;28;20429;-68
2022/05/20 05:19:44;;;;;;;1.88;0.40;;;20.70;60.40;;;;;;5113174;28;20039;-71
2022/05/20 05:22:10;;;;;;;2.67;0.70;;;20.70;60.30;;;;;;5111815;28;20043;-72
2022/05/20 05:24:37;;;;;;;1.88;0.60;;;20.70;60.30;;;;;;5112593;28;20066;-70
2022/05/20 05:27:04;;;;;;;1.65;0.50;;;20.70;60.30;;;;;;5112551;28;20065;-72
2022/05/20 05:29:31;;;;;;;2.25;0.50;;;20.70;60.30;;;;;;5112628;28;20047;-70
2022/05/20 05:31:57;;;;;;;1.73;0.50;;;20.70;60.30;;;;;;5108874;28;20119;-66
2022/05/20 05:34:23;;;;;;;3.90;0.40;;;20.70;60.00;;;;;;5109808;28;20372;-67
2022/05/20 05:36:49;;;;;;;2.90;0.50;;;20.70;60.00;;;;;;5109171;28;20126;-67
2022/05/20 05:39:14;;;;;;;4.43;0.60;;;20.70;60.00;;;;;;5109824;28;20043;-66
2022/05/20 05:41:40;;;;;;;3.72;0.63;;;20.80;59.90;;;;;;5110568;28;20445;-67
2022/05/20 05:44:06;;;;;;;1.70;0.45;;;20.70;59.80;;;;;;5090948;28;20051;-67
2022/05/20 05:46:32;;;;;;;1.58;0.40;;;20.80;59.60;;;;;;5108663;28;20062;-67
2022/05/20 05:48:58;;;;;;;3.65;1.17;;;20.80;60.20;;;;;;5106310;28;20036;-69
2022/05/20 05:51:26;;;;;;;2.97;0.47;;;20.80;59.30;;;;;;5085795;28;20424;-68
2022/05/20 05:53:52;;;;;;;2.15;1.10;;;20.80;59.00;;;;;;5102383;28;20040;-68
2022/05/20 05:56:18;;;;;;;4.80;2.03;;;20.80;58.90;;;;;;5102249;28;20046;-69
2022/05/20 05:58:47;;;;;;;3.55;1.42;;;20.80;58.60;;;;;;5103236;28;20035;-68
2022/05/20 06:01:17;;;;;;;4.45;1.83;;;20.80;58.10;;;;;;5104638;28;20036;-68
2022/05/20 06:03:42;;;;;;;3.00;1.38;;;20.70;57.80;;;;;;5104554;28;20039;-68
2022/05/20 06:06:08;;;;;;;6.53;2.40;;;20.80;57.70;;;;;;5103206;28;20348;-69
2022/05/20 06:08:37;;;;;;;5.22;2.08;;;20.70;57.30;;;;;;5105050;28;20520;-69
2022/05/20 06:11:02;;;;;;;9.35;2.50;;;20.70;57.20;;;;;;5103713;28;20444;-70
2022/05/20 06:13:29;;;;;;;4.22;1.90;;;20.70;57.20;;;;;;5101595;28;20067;-71
2022/05/20 06:15:56;;;;;;;5.20;2.03;;;20.70;57.10;;;;;;5106265;28;20455;-70
2022/05/20 06:18:22;;;;;;;3.58;1.75;;;20.70;57.10;;;;;;5107353;28;20043;-70
2022/05/20 06:20:48;;;;;;;5.10;2.10;;;20.70;57.10;;;;;;5105484;28;20054;-70
2022/05/20 06:23:15;;;;;;;4.18;1.95;;;20.70;57.10;;;;;;5106963;28;20051;-70
2022/05/20 06:25:42;;;;;;;4.75;2.05;;;20.70;57.20;;;;;;5104102;28;20864;-69
2022/05/20 06:28:11;;;;;;;4.13;2.08;;;20.70;57.20;;;;;;5090052;28;20043;-70
2022/05/20 06:30:38;;;;;;;3.03;1.98;;;20.70;58.00;;;;;;5086439;28;20119;-70
2022/05/20 06:33:04;;;;;;;3.55;0.90;;;20.70;57.30;;;;;;5106720;28;20157;-69
2022/05/20 06:41:03;;;;;;;2.38;0.80;;;20.70;57.50;;;;;;5098336;28;20044;-68
2022/05/20 06:43:29;;;;;;;5.13;1.48;;;20.80;57.50;;;;;;5089995;28;20036;-68
2022/05/20 06:45:58;;;;;;;4.15;1.20;;;20.80;57.40;;;;;;5091161;28;20067;-67
2022/05/20 06:48:35;;;;;;;7.47;1.15;;;20.80;57.30;;;;;;5092979;28;20430;-69
2022/05/20 06:51:06;;;;;;;3.80;0.68;;;20.80;57.20;;;;;;5090806;28;20784;-67
2022/05/20 06:53:32;;;;;;;6.30;1.10;;;20.90;57.40;;;;;;5092797;28;20040;-69
2022/05/20 06:55:58;;;;;;;3.58;1.10;;;21.00;57.40;;;;;;5106033;27;20043;-66
2022/05/20 06:58:24;;;;;;;3.60;1.05;;;21.00;57.40;;;;;;5101063;27;20040;-67
2022/05/20 07:00:49;;;;;;;5.28;1.15;;;21.00;57.40;;;;;;5092508;27;20181;-67
2022/05/20 07:03:19;;;;;;;4.78;0.82;;;21.10;57.40;;;;;;5098770;27;20040;-66
2022/05/20 07:05:45;;;;;;;7.18;1.08;;;21.10;57.40;;;;;;5093545;28;20360;-67
2022/05/20 07:08:11;;;;;;;3.28;0.90;;;21.10;57.40;;;;;;5090319;27;20494;-65
2022/05/20 07:10:37;;;;;;;7.13;0.70;;;21.20;57.30;;;;;;5106805;27;20048;-66
2022/05/20 07:13:02;;;;;;;4.32;0.82;;;21.20;57.30;;;;;;5095219;28;20259;-66
2022/05/20 07:15:28;;;;;;;6.85;0.93;;;21.20;57.30;;;;;;5097286;28;20032;-66
2022/05/20 07:17:53;;;;;;;3.83;0.75;;;21.30;57.20;;;;;;5099662;28;20043;-68
2022/05/20 07:20:19;;;;;;;4.43;0.63;;;21.30;57.10;;;;;;5095316;28;20054;-66
2022/05/20 07:22:45;;;;;;;5.07;0.60;;;21.30;57.00;;;;;;5098475;28;20032;-66
2022/05/20 07:25:11;;;;;;;3.13;0.85;;;21.40;57.00;;;;;;5115145;27;20043;-67
2022/05/20 07:27:37;;;;;;;6.78;0.90;;;21.40;57.00;;;;;;5097832;27;20041;-67
2022/05/20 07:30:04;;;;;;;4.00;0.98;;;21.40;57.10;;;;;;5095521;28;20032;-69
2022/05/20 07:32:29;;;;;;;3.22;0.80;;;21.50;57.10;;;;;;5087262;28;20299;-68
2022/05/20 07:34:55;;;;;;;3.63;0.63;;;21.50;57.00;;;;;;5089091;27;20384;-68
2022/05/20 07:37:24;;;;;;;1.50;0.60;;;21.50;56.90;;;;;;5090389;28;20478;-67
2022/05/20 07:39:50;;;;;;;4.60;0.60;;;21.60;56.90;;;;;;5089507;27;20039;-66
2022/05/20 07:42:15;;;;;;;6.25;0.95;;;21.60;56.90;;;;;;5092506;28;20398;-66
2022/05/20 07:44:42;;;;;;;5.97;0.40;;;21.60;56.90;;;;;;5094706;27;20040;-66
2022/05/20 07:47:08;;;;;;;5.50;0.90;;;21.60;56.90;;;;;;5108802;27;20047;-68
2022/05/20 07:49:34;;;;;;;6.68;0.77;;;21.60;56.70;;;;;;5089916;28;20470;-67
2022/05/20 07:52:03;;;;;;;5.55;1.50;;;21.60;56.90;;;;;;5095528;27;20045;-67
2022/05/20 07:54:32;;;;;;;6.03;0.70;;;21.70;56.90;;;;;;5088765;27;20040;-68
2022/05/20 07:57:04;;;;;;;2.90;0.77;;;21.70;56.80;;;;;;5096794;28;20338;-67
2022/05/20 07:59:40;;;;;;;4.50;1.00;;;21.70;56.60;;;;;;5087590;28;20088;-68
2022/05/20 08:02:07;;;;;;;4.85;0.70;;;21.70;56.50;;;;;;5087174;28;20058;-66
2022/05/20 08:04:53;;;;;;;3.00;0.60;;;21.70;57.20;;;;;;5103012;27;20039;-67
2022/05/20 08:07:20;;;;;;;2.22;0.60;;;21.70;56.90;;;;;;5091788;28;20040;-67
2022/05/20 08:09:47;;;;;;;2.58;1.00;;;21.70;56.90;;;;;;5094057;27;20120;-67
2022/05/20 08:12:13;;;;;;;3.47;0.50;;;21.80;57.00;;;;;;5092664;27;20554;-71
2022/05/20 08:14:38;;;;;;;2.35;0.98;;;21.80;57.10;;;;;;5091072;27;20165;-67
2022/05/20 08:17:05;;;;;;;2.50;0.50;;;21.80;57.10;;;;;;5088807;28;20028;-67
2022/05/20 08:19:31;;;;;;;6.22;0.55;;;21.90;57.00;;;;;;5095824;28;20093;-67
2022/05/20 08:22:00;;;;;;;5.80;0.80;;;22.00;56.80;;;;;;5095535;28;20413;-67
2022/05/20 08:24:26;;;;;;;4.88;0.65;;;22.00;56.50;;;;;;5106935;27;20044;-67
2022/05/20 08:26:52;;;;;;;2.47;0.63;;;22.10;56.50;;;;;;5090637;27;20046;-68
2022/05/20 08:29:18;;;;;;;3.33;0.60;;;22.20;56.50;;;;;;5108463;27;20373;-67
2022/05/20 08:31:45;;;;;;;4.90;0.40;;;22.20;56.40;;;;;;5105777;27;20471;-66
2022/05/20 08:34:11;;;;;;;1.55;0.40;;;22.20;56.10;;;;;;5109362;27;20038;-68
2022/05/20 08:36:38;;;;;;;1.30;0.30;;;22.30;56.00;;;;;;5098269;28;20042;-68
2022/05/20 08:39:05;;;;;;;7.25;0.55;;;22.30;55.90;;;;;;5097580;28;20067;-68
2022/05/20 08:41:41;;;;;;;3.78;0.50;;;22.30;55.80;;;;;;5094007;27;20098;-67
2022/05/20 08:44:12;;;;;;;1.08;0.50;;;22.30;55.70;;;;;;5095316;28;20043;-67
2022/05/20 08:46:40;;;;;;;2.78;0.50;;;22.40;55.70;;;;;;5095997;28;20432;-67
2022/05/20 08:49:10;;;;;;;2.88;0.40;;;22.40;55.60;;;;;;5086809;27;20127;-66
2022/05/20 08:51:50;;;;;;;2.80;0.40;;;22.40;55.40;;;;;;5092291;27;20052;-68
2022/05/20 08:54:17;;;;;;;5.38;0.47;;;22.50;55.20;;;;;;5092208;28;20074;-68
2022/05/20 08:56:44;;;;;;;3.28;0.60;;;22.70;55.50;;;;;;5089953;27;20119;-66
2022/05/20 08:59:15;;;;;;;3.35;0.77;;;22.80;54.50;;;;;;5090530;28;20044;-66
2022/05/20 09:01:45;;;;;;;5.47;0.50;;;23.00;54.10;;;;;;5105371;27;20071;-66
2022/05/20 09:04:15;;;;;;;5.30;0.77;;;23.10;53.70;;;;;;5087031;28;20150;-70
2022/05/20 09:09:56;;;;;;;5.35;0.43;;;23.30;53.40;;;;;;5108089;27;1297134;-67
2022/05/20 09:17:49;;;;;;;3.60;0.47;;;23.50;53.00;;;;;;5115474;27;20413;-69
2022/05/20 09:20:18;;;;;;;4.13;0.75;;;23.50;52.50;;;;;;5087465;28;20039;-69
2022/05/20 09:22:56;;;;;;;4.97;0.60;;;23.60;52.50;;;;;;5101712;28;20043;-73
2022/05/20 09:25:26;;;;;;;2.28;0.60;;;23.60;52.40;;;;;;5053804;28;20083;-73
2022/05/20 09:27:57;;;;;;;4.78;0.40;;;23.60;52.00;;;;;;5078787;28;20787;-73
2022/05/20 09:30:37;;;;;;;2.58;0.45;;;23.70;51.80;;;;;;5087998;28;20048;-70
2022/05/20 09:33:14;;;;;;;11.68;0.88;;;23.70;51.40;;;;;;5088009;28;20069;-73
2022/05/20 09:35:40;;;;;;;4.38;0.95;;;23.80;51.40;;;;;;5093803;28;20479;-74
2022/05/20 09:41:15;;;;;;;3.40;0.38;;;23.80;51.30;;;;;;5069971;27;20420;-73
2022/05/20 09:43:44;;;;;;;2.95;0.70;;;23.80;51.20;;;;;;5056671;28;20044;-71
2022/05/20 09:46:28;;;;;;;7.47;1.02;;;23.80;51.00;;;;;;5082003;28;20040;-70
2022/05/20 09:49:16;;;;;;;4.03;0.40;;;23.80;50.90;;;;;;5082161;28;20157;-71
2022/05/20 09:51:50;;;;;;;3.38;0.55;;;23.80;50.80;;;;;;5083290;28;20117;-72
2022/05/20 09:54:26;;;;;;;4.95;0.82;;;23.70;50.70;;;;;;5052436;28;20048;-71
2022/05/20 09:57:21;;;;;;;3.78;0.55;;;23.70;50.60;;;;;;5055649;28;20059;-72
2022/05/20 10:03:16;;;;;;;4.47;1.15;;;23.70;51.00;;;;;;5062047;27;20583;-67
2022/05/20 10:08:44;;;;;;;5.43;0.60;;;23.60;50.80;;;;;;5068226;27;20188;-66
2022/05/20 10:11:18;;;;;;;4.95;0.95;;;23.60;50.90;;;;;;5057476;28;20056;-66
2022/05/20 10:22:46;;;;;;;5.13;0.63;;;23.40;50.60;;;;;;5116204;27;1173195;-67
2022/05/20 10:25:30;;;;;;;1.83;0.50;;;23.40;50.70;;;;;;5129855;27;20347;-68
2022/05/20 10:33:58;;;;;;;1.33;0.70;;;23.30;50.80;;;;;;5130913;27;20145;-68
2022/05/20 10:36:37;;;;;;;3.05;0.63;;;23.30;50.80;;;;;;5137668;27;20430;-69
2022/05/20 10:42:21;;;;;;;1.52;0.50;;;23.30;50.70;;;;;;5046935;28;20470;-68
2022/05/20 10:48:35;;;;;;;2.42;0.60;;;23.20;50.80;;;;;;5036348;28;20516;-66
2022/05/20 11:06:09;;;;;;;2.78;0.55;;;23.10;50.10;;;;;;5101683;27;20817;-67
2022/05/20 11:08:48;;;;;;;5.22;2.15;;;23.10;50.20;;;;;;5131910;27;20543;-65
2022/05/20 11:11:56;;;;;;;2.65;1.30;;;23.10;49.80;;;;;;5102836;28;20165;-67
2022/05/20 11:17:46;;;;;;;3.08;0.63;;;23.00;50.10;;;;;;5066689;27;20449;-67
2022/05/20 12:01:55;;;;;;;1.60;0.60;;;23.50;50.60;;;;;;5071425;27;20693;-70
2022/05/20 12:04:24;;;;;;;1.05;0.60;;;23.50;50.40;;;;;;5059147;28;20044;-71
2022/05/20 12:06:56;;;;;;;3.28;0.55;;;23.50;50.40;;;;;;5056687;28;20049;-70
2022/05/20 12:12:48;;;;;;;2.72;0.60;;;23.50;50.20;;;;;;5109996;27;20766;-69
2022/05/20 12:17:52;;;;;;;2.05;0.40;;;23.50;50.20;;;;;;5096397;27;20834;-70
2022/05/20 12:25:51;;;;;;;4.40;0.40;;;23.50;50.30;;;;;;5072409;28;20916;-71
2022/05/20 12:36:39;;;;;;;2.03;0.40;;;23.50;49.70;;;;;;5051740;28;20470;-66
2022/05/20 12:44:32;;;;;;;3.17;0.60;;;23.50;49.70;;;;;;5120361;27;1170019;-69
2022/05/20 12:54:59;;;;;;;2.40;0.50;;;23.50;49.90;;;;;;5109530;27;1174881;-72
2022/05/20 12:57:30;;;;;;;1.98;0.68;;;23.50;50.00;;;;;;5134537;27;20043;-70
2022/05/20 13:00:03;;;;;;;1.33;0.80;;;23.50;49.70;;;;;;5128272;27;20100;-71
2022/05/20 13:02:38;;;;;;;2.75;0.60;;;23.50;49.70;;;;;;5137014;27;20050;-71
2022/05/20 13:05:26;;;;;;;1.48;0.80;;;23.40;49.60;;;;;;5138395;27;20431;-71
2022/05/20 13:07:54;;;;;;;1.92;0.80;;;23.40;49.60;;;;;;5138452;27;20211;-71
2022/05/20 13:10:27;;;;;;;2.65;1.17;;;23.40;49.70;;;;;;5135826;27;20346;-72
2022/05/20 13:12:57;;;;;;;3.72;0.70;;;23.30;49.90;;;;;;5157710;27;20210;-70
2022/05/20 13:15:23;;;;;;;2.05;1.00;;;23.30;50.10;;;;;;5142202;27;20038;-72
2022/05/20 13:18:08;;;;;;;2.88;0.68;;;23.20;50.00;;;;;;5144121;27;20552;-71
2022/05/20 13:20:36;;;;;;;2.65;0.70;;;23.20;49.90;;;;;;5139355;27;20045;-73
2022/05/20 13:23:06;;;;;;;2.28;0.60;;;23.20;50.10;;;;;;5112872;27;20032;-72
2022/05/20 13:25:32;;;;;;;3.10;0.90;;;23.10;50.20;;;;;;5152087;27;20429;-71
2022/05/20 13:27:59;;;;;;;7.03;1.10;;;23.10;50.30;;;;;;5133560;27;20063;-72
2022/05/20 13:30:30;;;;;;;4.38;0.95;;;23.10;50.40;;;;;;5108190;27;20048;-74
2022/05/20 13:33:02;;;;;;;2.08;0.70;;;23.00;50.40;;;;;;5158148;27;20043;-74
2022/05/20 13:35:28;;;;;;;3.03;0.70;;;23.00;50.50;;;;;;5141008;27;20046;-75
2022/05/20 13:37:59;;;;;;;1.98;0.70;;;22.90;50.60;;;;;;5139022;27;20043;-76
2022/05/20 13:40:32;;;;;;;3.40;0.80;;;22.90;50.70;;;;;;5134829;27;20035;-75
2022/05/20 13:42:58;;;;;;;3.75;0.80;;;22.90;50.90;;;;;;5146846;27;20133;-74
2022/05/20 13:51:06;;;;;;;3.90;0.63;;;22.80;51.50;;;;;;5165426;27;20082;-72
2022/05/20 13:53:33;;;;;;;3.40;0.60;;;22.80;51.80;;;;;;5147147;27;20061;-71
2022/05/20 13:55:59;;;;;;;1.42;0.65;;;22.80;52.00;;;;;;5161313;27;20038;-69
2022/05/20 13:58:25;;;;;;;5.10;0.82;;;22.70;52.10;;;;;;5143450;27;20062;-69
2022/05/20 14:00:51;;;;;;;2.30;1.00;;;22.70;52.40;;;;;;5140098;27;20037;-70
2022/05/20 14:03:31;;;;;;;1.45;0.60;;;22.70;52.90;;;;;;5129047;27;20042;-69
2022/05/20 14:06:07;;;;;;;3.28;1.02;;;22.70;53.60;;;;;;5127102;27;20066;-68
2022/05/20 14:08:40;;;;;;;4.68;0.90;;;22.70;53.70;;;;;;5145805;27;20421;-70
2022/05/20 14:11:13;;;;;;;4.10;0.93;;;22.60;53.90;;;;;;5133169;27;20038;-71
2022/05/20 14:13:40;;;;;;;2.50;1.02;;;22.60;54.20;;;;;;5148756;27;20447;-71
2022/05/20 14:16:15;;;;;;;5.15;1.00;;;22.60;54.50;;;;;;5151373;27;20035;-69
2022/05/20 14:18:45;;;;;;;5.45;1.25;;;22.60;55.20;;;;;;5131761;27;20067;-70
2022/05/20 14:23:54;;;;;;;5.10;1.80;;;22.50;55.40;;;;;;5143491;27;1221452;-67
2022/05/20 14:34:34;;;;;;;5.80;1.70;;;22.50;56.00;;;;;;5125059;27;20399;-68
2022/05/20 14:39:52;;;;;;;3.97;2.10;;;22.50;57.30;;;;;;5103264;27;20632;-68
2022/05/20 14:45:19;;;;;;;5.43;1.10;;;22.40;57.10;;;;;;5104119;27;20303;-72
2022/05/20 14:47:50;;;;;;;5.45;1.20;;;22.40;57.40;;;;;;5099475;28;20047;-71
2022/05/20 14:50:21;;;;;;;2.78;1.10;;;22.40;58.30;;;;;;5086284;28;20408;-73
2022/05/20 14:55:40;;;;;;;3.58;1.52;;;22.40;57.70;;;;;;5081471;28;20443;-72
2022/05/20 15:03:36;;;;;;;2.10;1.23;;;22.30;57.90;;;;;;5125355;27;20407;-71
2022/05/20 15:06:03;;;;;;;2.40;0.90;;;22.30;57.80;;;;;;5124437;28;20104;-73
2022/05/20 15:08:33;;;;;;;6.00;1.17;;;22.20;57.80;;;;;;5124939;27;20031;-72
2022/05/20 15:11:13;;;;;;;3.15;1.13;;;22.20;57.80;;;;;;5124098;27;20043;-71
2022/05/20 15:13:39;;;;;;;;;;;22.20;57.90;;;;;;5125259;28;20039;-71
2022/05/20 15:16:05;;;;;;;3.53;1.17;;;22.20;58.10;;;;;;5125105;28;19926;-72
2022/05/20 15:18:31;;;;;;;3.05;1.17;;;22.10;57.90;;;;;;5125579;28;20122;-70
2022/05/20 15:21:00;;;;;;;3.22;0.85;;;22.10;57.90;;;;;;5125878;28;20114;-71
2022/05/20 15:23:36;;;;;;;2.35;1.25;;;22.10;58.10;;;;;;5125453;28;20062;-72
2022/05/20 15:26:09;;;;;;;3.78;1.75;;;22.00;58.10;;;;;;5125860;27;20042;-71
2022/05/20 15:29:07;;;;;;;2.88;1.40;;;22.00;58.30;;;;;;5124602;28;20542;-72
2022/05/20 15:37:06;;;;;;;2.90;1.33;;;21.90;58.50;;;;;;5125785;27;20051;-71
2022/05/20 15:39:38;;;;;;;2.25;1.27;;;21.90;58.50;;;;;;5124455;28;20047;-71
2022/05/20 15:42:05;;;;;;;1.50;0.90;;;21.80;58.60;;;;;;5124230;28;20035;-71
2022/05/20 15:44:31;;;;;;;5.22;1.95;;;21.80;58.60;;;;;;5125077;27;20212;-70
2022/05/20 15:46:58;;;;;;;3.45;1.65;;;21.80;58.70;;;;;;5122589;28;20039;-71
2022/05/20 15:49:24;;;;;;;2.88;1.70;;;21.70;58.70;;;;;;5124120;28;20234;-71
2022/05/20 15:51:51;;;;;;;2.58;1.30;;;21.70;58.70;;;;;;5124409;28;20043;-70
2022/05/20 15:54:17;;;;;;;4.53;1.27;;;21.70;58.80;;;;;;5124397;28;20070;-72
2022/05/20 15:56:43;;;;;;;3.38;2.03;;;21.70;58.90;;;;;;5124490;28;20521;-71
2022/05/20 15:59:08;;;;;;;2.63;1.90;;;21.60;58.90;;;;;;5124408;28;20035;-72
2022/05/20 16:01:34;;;;;;;4.35;2.00;;;21.60;59.00;;;;;;5124147;28;20394;-71
2022/05/20 16:04:00;;;;;;;3.10;1.70;;;21.60;59.00;;;;;;5125807;28;20662;-71
2022/05/20 16:06:32;;;;;;;2.10;1.63;;;21.60;59.10;;;;;;5123922;28;20055;-72
2022/05/20 16:08:59;;;;;;;3.10;1.80;;;21.50;59.20;;;;;;5123700;28;20047;-70
2022/05/20 16:11:29;;;;;;;2.75;1.70;;;21.50;59.20;;;;;;5122924;27;20121;-71
2022/05/20 16:13:55;;;;;;;2.53;1.55;;;21.50;59.30;;;;;;5117358;28;20387;-72
2022/05/20 16:16:24;;;;;;;3.47;1.70;;;21.50;59.30;;;;;;5110388;28;20042;-71
2022/05/20 16:18:50;;;;;;;2.63;1.60;;;21.50;59.40;;;;;;5110221;28;20429;-71
2022/05/20 16:21:16;;;;;;;1.80;1.42;;;21.40;59.40;;;;;;5110884;28;20050;-70
2022/05/20 16:23:45;;;;;;;1.58;1.48;;;21.40;59.50;;;;;;5110730;28;20407;-70